»·PEaware :: WAT388 KPSP-KSAN

WAT388 :: KPSP-KSAN

FLIGHT INFORMATION

Flight Status: Arrived
Operator:
Walker Air Transport
More flights by this operator :: More flights under this callsign
Pilot: Jacob A. (30091)
Aircraft: CESSNA 182 SKYLANE
(C182)
More flights by this aircraft type
Origin: KPSP Palm Springs Intl
United States
Destination: KSAN San Diego Intl-Lindbergh
United States
More flights between these airports :: More routes between these airports
Route: TRM V208 JLI V460 CANNO
File this flight plan on PilotEdge
Remarks:
Altitude:
(Current/Filed)
10,500ft
Speed:
(Current/Filed)
155kts
Departed: 28-Dec-20 10:12 AM
Arrived: 28-Dec-20 11:01 AM
Distance/Time
Traveled:
74nm/0:48
Distance/Time
To Go:
Arrived

Flight Plot

Page will automatically refresh every two minutes.

Flight plan parsing failed; only flown route is shown


Map Options




Map Legend


Flown Route
Filed Route
Departure Airport
Arrival Airport
Navaid (VOR, NDB)
Fix

Horizontal Profiles

Position Reports

Time Latitude Longitude Heading Altitude Ground
Speed
28-Dec-20 09:46 33.820466 -116.494961 323 394ft 0kts
28-Dec-20 09:47 33.820466 -116.494961 323 394ft 0kts
28-Dec-20 09:48 33.820466 -116.494961 323 394ft 0kts
28-Dec-20 09:49 33.820466 -116.494961 323 394ft 0kts
28-Dec-20 09:50 33.820466 -116.494961 323 394ft 0kts
28-Dec-20 09:51 33.820466 -116.494961 323 394ft 0kts
28-Dec-20 09:52 33.820466 -116.494961 323 394ft 0kts
28-Dec-20 09:53 33.820466 -116.494961 323 394ft 0kts
28-Dec-20 09:54 33.820466 -116.494961 323 394ft 0kts
28-Dec-20 09:55 33.820466 -116.494961 323 394ft 0kts
28-Dec-20 09:56 33.820466 -116.494961 323 394ft 0kts
28-Dec-20 09:57 33.820466 -116.494961 323 394ft 0kts
28-Dec-20 09:58 33.820466 -116.494961 323 394ft 0kts
28-Dec-20 09:59 33.820466 -116.494961 323 394ft 0kts
28-Dec-20 10:00 33.820466 -116.494961 323 394ft 0kts
28-Dec-20 10:01 33.820466 -116.494961 323 394ft 0kts
28-Dec-20 10:02 33.820466 -116.494961 323 394ft 0kts
28-Dec-20 10:03 33.820466 -116.494961 323 394ft 0kts
28-Dec-20 10:04 33.821319 -116.496153 324 398ft 7kts
28-Dec-20 10:05 33.823163 -116.497795 322 404ft 11kts
28-Dec-20 10:06 33.826123 -116.500636 323 410ft 15kts
28-Dec-20 10:07 33.828581 -116.502843 321 423ft 0kts
28-Dec-20 10:08 33.832397 -116.506223 324 440ft 17kts
28-Dec-20 10:09 33.835336 -116.508852 310 449ft 8kts
28-Dec-20 10:10 33.835353 -116.509228 222 449ft 0kts
28-Dec-20 10:11 33.833672 -116.508304 143 443ft 57kts
28-Dec-20 10:12 33.811492 -116.490023 144 1593ft 130kts
28-Dec-20 10:13 33.784597 -116.460047 97 2626ft 135kts
28-Dec-20 10:14 33.775822 -116.416067 116 3617ft 138kts
28-Dec-20 10:15 33.754695 -116.377403 125 4613ft 138kts
28-Dec-20 10:16 33.732752 -116.339491 125 5613ft 136kts
28-Dec-20 10:17 33.711106 -116.302294 124 6620ft 133kts
28-Dec-20 10:18 33.689952 -116.266012 124 7616ft 132kts
28-Dec-20 10:19 33.669145 -116.230370 124 8616ft 127kts
28-Dec-20 10:20 33.649319 -116.196411 123 9619ft 120kts
28-Dec-20 10:21 33.630634 -116.164592 128 10414ft 119kts
28-Dec-20 10:22 33.599952 -116.182799 220 10492ft 145kts
28-Dec-20 10:23 33.568762 -116.212157 216 10489ft 153kts
28-Dec-20 10:24 33.537631 -116.239732 220 10503ft 135kts
28-Dec-20 10:25 33.507947 -116.265695 220 10486ft 127kts
28-Dec-20 10:26 33.479015 -116.290960 219 10428ft 128kts
28-Dec-20 10:27 33.449712 -116.316603 220 10557ft 138kts
28-Dec-20 10:28 33.418461 -116.343968 220 10481ft 136kts
28-Dec-20 10:29 33.387628 -116.370903 219 10481ft 135kts
28-Dec-20 10:30 33.357503 -116.397213 219 10497ft 135kts
28-Dec-20 10:31 33.328054 -116.422882 220 10456ft 128kts
28-Dec-20 10:32 33.298526 -116.448596 219 10489ft 133kts
28-Dec-20 10:33 33.268179 -116.474948 220 10446ft 132kts
28-Dec-20 10:34 33.238510 -116.500745 219 10485ft 133kts
28-Dec-20 10:35 33.207740 -116.527543 219 10491ft 137kts
28-Dec-20 10:36 33.177065 -116.554180 219 10501ft 135kts
28-Dec-20 10:37 33.146778 -116.580603 219 10421ft 128kts
28-Dec-20 10:38 33.108049 -116.589261 190 10206ft 155kts
28-Dec-20 10:40 33.066390 -116.593870 185 9540ft 155kts
28-Dec-20 10:41 33.021732 -116.598306 186 8841ft 162kts
28-Dec-20 10:42 32.977911 -116.602817 186 8522ft 152kts
28-Dec-20 10:43 32.935777 -116.607176 186 8368ft 157kts
28-Dec-20 10:44 32.891739 -116.611749 186 7748ft 159kts
28-Dec-20 10:45 32.848494 -116.616195 187 7038ft 153kts
28-Dec-20 10:46 32.806417 -116.624352 204 6341ft 155kts
28-Dec-20 10:47 32.766825 -116.646866 210 5402ft 155kts
28-Dec-20 10:48 32.737778 -116.682179 250 4715ft 152kts
28-Dec-20 10:49 32.734696 -116.730031 268 4496ft 147kts
28-Dec-20 10:50 32.734978 -116.779476 269 3887ft 151kts
28-Dec-20 10:51 32.735375 -116.828862 268 3207ft 149kts
28-Dec-20 10:52 32.729468 -116.872321 247 2593ft 123kts
28-Dec-20 10:53 32.716873 -116.908025 245 2511ft 114kts
28-Dec-20 10:53 32.709737 -116.938697 259 2546ft 117kts
28-Dec-20 10:55 32.710368 -116.987771 272 2028ft 137kts
28-Dec-20 10:55 32.722048 -117.022908 304 1603ft 137kts
28-Dec-20 10:57 32.730592 -117.069222 258 1563ft 129kts
28-Dec-20 10:57 32.730027 -117.104386 278 1559ft 131kts
28-Dec-20 10:58 32.725681 -117.146217 267 909ft 126kts
28-Dec-20 11:00 32.731044 -117.179194 283 109ft 64kts
28-Dec-20 11:00 32.734210 -117.187825 87 12ft 0kts
28-Dec-20 11:01 32.733908 -117.186361 105 14ft 16kts
28-Dec-20 11:02 32.732965 -117.179686 14 16ft 11kts
28-Dec-20 11:03 32.733962 -117.178949 53 14ft 0kts
28-Dec-20 11:04 32.733962 -117.178949 53 14ft 0kts
28-Dec-20 11:05 32.733962 -117.178949 53 14ft 0kts

Navigation Log

Ident Type
Flight plan parsing failed, navigation log unavailable